Airfield :
LOGIN :

Register | Disclaimer

   EN    FR    IT 

 










Legend :    VFR   Marginal VFR   IFR   Intensive IFR   Very Intensive IFR
Visi :
Ceiling :
>= 8 km
>= 3000ft
5 to 8 km
1000 to 3000 ft
1500m to 5 km
500 to 1000 ft
800 to 1500m
200 to 500 ft
< 800m
< 200 ft
Symbols :   Thunderstorms  Fog  Heavy snow  Heavy precipitations  Wind > 20 kt
SIGMETs :     Misc.  Thunderstorms  Icing  Turbulence  Mountain Waves  Volcanic Ashes






- Airport Elevation : 13 ft
- IATA code : LYX


EGMD - Lydd

CURRENT METAR :
  • 280750Z AUTO 26012KT 9999 NCD 03/01 Q0994

EXPIRED METARs :
  • 280720Z AUTO 26013KT 9999 NCD 03/01 Q0994
  • 280650Z AUTO 27016KT 9999 NCD 04/02 Q0993
  • 280620Z AUTO 27013KT 9999 FEW022/// 04/02 Q0993
  • 280550Z AUTO 27016KT 9999 SCT026/// SCT031/// 05/02 Q0992
  • 280520Z AUTO 26016KT 9999 FEW024/// 05/03 Q0992
  • 280450Z AUTO 26013KT 9999 FEW023/// 06/04 Q0991

TAF TAF EGMD
Valid from the 28 at 06:00 until the 28 at 15:00 UTC


280459Z 2806/2815 25015KT 9999 FEW025
PROB30
TEMPO 2806/2810 26018G28KT
ATIS : +44 1797 322 422



MET'MAP, your aeronautical weather chart ! - Copyright ORBIFLY December 2007 - Disclaimer

ORBIFLY MET'MAP TEAM :

Programming & Development : Alexandra Zaïnal
Concept & original design : Baudouin d'Aumeries
Assistance for programming : Marc-Olivier Méhu
Technical & hardware support : Manuel Goepfert

Contact : metmap@orbifly.com




SOURCES & CREDITS :

   NOAA